| time (UTC) | temp C | wind direction | speed KPH | gust KPH | rain 1hr cm | rain 24hr cm | rain mn cm | humidity % | barometer mb |
| 20260506123605 | 10 | 314 | 1.6 | 4.8 | 0.05 | 0.71 | 0.71 | 92 | 1013.5 |
| 20260506123105 | 10 | 314 | 0.0 | 4.8 | 0.05 | 0.71 | 0.71 | 92 | 1013.5 |
| 20260506121605 | 10 | 2 | 0.0 | 1.6 | 0.08 | 0.71 | 0.71 | 92 | 1013.5 |
| 20260506120605 | 10 | 357 | 0.0 | 0.0 | 0.10 | 0.71 | 0.71 | 92 | 1013.6 |
| 20260506120104 | 10 | 357 | 0.0 | 0.0 | 0.13 | 0.71 | 0.71 | 92 | 1013.5 |
| 20260506115605 | 10 | 357 | 0.0 | 4.8 | 0.15 | 0.71 | 0.71 | 92 | 1013.5 |
| 20260506115105 | 10 | 345 | 0.0 | 1.6 | 0.13 | 0.71 | 0.71 | 92 | 1013.6 |
| 20260506114605 | 10 | 345 | 0.0 | 1.6 | 0.13 | 0.71 | 0.71 | 92 | 1013.5 |
| 20260506114105 | 10 | 345 | 0.0 | 1.6 | 0.15 | 0.71 | 0.71 | 92 | 1013.5 |
| 20260506113605 | 10 | 345 | 0.0 | 1.6 | 0.13 | 0.69 | 0.69 | 92 | 1013.5 |
| 20260506113104 | 10 | 345 | 0.0 | 1.6 | 0.15 | 0.69 | 0.69 | 92 | 1013.5 |
| 20260506112605 | 10 | 345 | 0.0 | 3.2 | 0.15 | 0.66 | 0.66 | 92 | 1013.6 |
| 20260506111605 | 10 | 345 | 0.0 | 0.0 | 0.15 | 0.64 | 0.64 | 92 | 1013.6 |
| 20260506110605 | 10 | 45 | 0.0 | 4.8 | 0.13 | 0.61 | 0.61 | 92 | 1013.5 |
| 20260506104605 | 10 | 0 | 0.0 | 1.6 | 0.08 | 0.58 | 0.58 | 92 | 1013.5 |
| 20260506104105 | 10 | 12 | 0.0 | 1.6 | 0.05 | 0.56 | 0.56 | 92 | 1013.5 |
| 20260506103605 | 10 | 12 | 0.0 | 1.6 | 0.05 | 0.56 | 0.56 | 92 | 1013.3 |
| 20260506102605 | 10 | 348 | 0.0 | 3.2 | 0.03 | 0.51 | 0.51 | 92 | 1013.4 |
| 20260506101104 | 9 | 357 | 0.0 | 8.0 | 0.00 | 0.51 | 0.51 | 91 | 1013.3 |
| 20260506100604 | 9 | 1 | 1.6 | 9.7 | 0.00 | 0.51 | 0.51 | 91 | 1013.2 |
| 20260506100105 | 9 | 345 | 1.6 | 4.8 | 0.00 | 0.51 | 0.51 | 91 | 1013.2 |
| 20260506092605 | 9 | 352 | 1.6 | 8.0 | 0.03 | 0.51 | 0.51 | 92 | 1012.9 |
| 20260506091105 | 9 | 57 | 0.0 | 8.0 | 0.03 | 0.51 | 0.51 | 92 | 1012.8 |
| 20260506090605 | 9 | 321 | 0.0 | 8.0 | 0.03 | 0.51 | 0.51 | 92 | 1012.8 |
| 20260506085605 | 9 | 43 | 1.6 | 14.5 | 0.03 | 0.51 | 0.51 | 92 | 1012.8 |
| 20260506085105 | 10 | 43 | 0.0 | 9.7 | 0.03 | 0.51 | 0.51 | 92 | 1012.8 |
| 20260506084604 | 10 | 340 | 0.0 | 12.9 | 0.03 | 0.51 | 0.51 | 92 | 1012.7 |
| 20260506084105 | 10 | 34 | 1.6 | 9.7 | 0.03 | 0.51 | 0.51 | 92 | 1012.7 |
| 20260506083105 | 10 | 275 | 0.0 | 4.8 | 0.05 | 0.51 | 0.51 | 93 | 1012.8 |
| 20260506082604 | 9 | 355 | 0.0 | 3.2 | 0.05 | 0.48 | 0.48 | 93 | 1012.8 |
| 20260506073105 | 8 | 351 | 0.0 | 4.8 | 0.15 | 0.46 | 0.46 | 92 | 1012.6 |
| 20260506072605 | 8 | 343 | 1.6 | 8.0 | 0.15 | 0.43 | 0.43 | 92 | 1012.5 |
| 20260506072105 | 8 | 341 | 0.0 | 4.8 | 0.13 | 0.38 | 0.38 | 92 | 1012.6 |
| 20260506062105 | 7 | 246 | 0.0 | 0.0 | 0.25 | 0.25 | 0.25 | 92 | 1012.4 |
| 20260506061604 | 7 | 246 | 0.0 | 3.2 | 0.23 | 0.23 | 0.23 | 92 | 1012.3 |
| 20260506060605 | 7 | 338 | 0.0 | 0.0 | 0.15 | 0.15 | 0.15 | 91 | 1012.4 |
| 20260506060105 | 7 | 338 | 0.0 | 0.0 | 0.10 | 0.10 | 0.10 | 91 | 1012.4 |
| 20260506051104 | 6 | 338 | 0.0 | 0.0 | 0.00 | 0.00 | 0.00 | 90 | 1012.3 |
| 20260506050605 | 6 | 338 | 0.0 | 1.6 | 0.00 | 0.00 | 0.00 | 91 | 1012.3 |
| 20260506044105 | 5 | 327 | 0.0 | 0.0 | 0.00 | 0.00 | 0.00 | 90 | 1012.2 |
| 20260506042105 | 5 | 327 | 0.0 | 0.0 | 0.00 | 0.00 | 0.00 | 90 | 1012.2 |
| 20260506041605 | 5 | 327 | 0.0 | 0.0 | 0.00 | 0.00 | 0.00 | 90 | 1012.3 |
| 20260506041105 | 5 | 327 | 0.0 | 4.8 | 0.00 | 0.00 | 0.00 | 89 | 1012.2 |
| 20260506034605 | 5 | 327 | 0.0 | 0.0 | 0.00 | 0.00 | 0.00 | 89 | 1012.3 |
| 20260506034105 | 5 | 327 | 0.0 | 0.0 | 0.00 | 0.00 | 0.00 | 89 | 1012.3 |
| 20260506032604 | 5 | 327 | 0.0 | 0.0 | 0.00 | 0.00 | 0.00 | 89 | 1012.5 |
| 20260506031605 | 5 | 327 | 0.0 | 0.0 | 0.00 | 0.00 | 0.00 | 88 | 1012.7 |
| 20260506031105 | 5 | 327 | 0.0 | 1.6 | 0.00 | 0.00 | 0.00 | 88 | 1012.7 |
| 20260506030105 | 5 | 327 | 0.0 | 3.2 | 0.00 | 0.00 | 0.00 | 88 | 1012.8 |
| 20260506025605 | 5 | 327 | 0.0 | 0.0 | 0.00 | 0.00 | 0.00 | 88 | 1012.8 |
| 20260506025105 | 5 | 327 | 0.0 | 0.0 | 0.00 | 0.00 | 0.00 | 88 | 1012.8 |
| 20260506022105 | 6 | 327 | 0.0 | 0.0 | 0.00 | 0.00 | 0.00 | 87 | 1013.0 |
| 20260506021605 | 6 | 327 | 0.0 | 0.0 | 0.00 | 0.00 | 0.00 | 87 | 1012.9 |
| 20260506020605 | 6 | 321 | 0.0 | 1.6 | 0.00 | 0.00 | 0.00 | 87 | 1013.0 |
| 20260506020106 | 6 | 318 | 0.0 | 0.0 | 0.00 | 0.00 | 0.00 | 87 | 1013.0 |
| 20260506015104 | 6 | 318 | 0.0 | 0.0 | 0.00 | 0.00 | 0.00 | 87 | 1013.1 |
| 20260506014105 | 6 | 318 | 0.0 | 0.0 | 0.00 | 0.00 | 0.00 | 87 | 1013.1 |
| 20260506013604 | 7 | 318 | 0.0 | 1.6 | 0.00 | 0.00 | 0.00 | 87 | 1013.1 |
| 20260506013104 | 7 | 326 | 0.0 | 1.6 | 0.00 | 0.00 | 0.00 | 87 | 1013.1 |
| 20260506012104 | 7 | 328 | 0.0 | 0.0 | 0.00 | 0.00 | 0.00 | 87 | 1013.2 |
| 20260506011604 | 7 | 328 | 0.0 | 1.6 | 0.00 | 0.00 | 0.00 | 86 | 1013.2 |
| 20260506005604 | 7 | 310 | 1.6 | 4.8 | 0.00 | 0.00 | 0.00 | 86 | 1013.3 |
| 20260506005105 | 7 | 303 | 0.0 | 1.6 | 0.00 | 0.00 | 0.00 | 86 | 1013.3 |
| 20260506004605 | 7 | 333 | 0.0 | 0.0 | 0.00 | 0.00 | 0.00 | 86 | 1013.3 |
| 20260506003104 | 8 | 330 | 1.6 | 4.8 | 0.00 | 0.00 | 0.00 | 86 | 1013.4 |
| 20260506002605 | 8 | 330 | 0.0 | 4.8 | 0.00 | 0.00 | 0.00 | 86 | 1013.5 |
| 20260506002105 | 8 | 324 | 0.0 | 1.6 | 0.00 | 0.00 | 0.00 | 87 | 1013.5 |
| 20260506001605 | 8 | 324 | 0.0 | 0.0 | 0.00 | 0.00 | 0.00 | 87 | 1013.4 |
| 20260506000605 | 8 | 328 | 0.0 | 8.0 | 0.00 | 0.00 | 0.00 | 87 | 1013.5 |
| 20260506000105 | 8 | 330 | 1.6 | 8.0 | 0.00 | 0.00 | 0.00 | 87 | 1013.6 |
| 20260505235605 | 8 | 325 | 0.0 | 4.8 | 0.00 | 0.00 | 0.00 | 87 | 1013.7 |
| 20260505235105 | 8 | 325 | 0.0 | 0.0 | 0.00 | 0.00 | 0.00 | 87 | 1013.6 |
| 20260505232605 | 8 | 354 | 0.0 | 0.0 | 0.00 | 0.00 | 0.00 | 86 | 1013.7 |
| 20260505232104 | 8 | 354 | 0.0 | 0.0 | 0.00 | 0.00 | 0.00 | 86 | 1013.7 |
| 20260505230604 | 8 | 0 | 0.0 | 1.6 | 0.00 | 0.00 | 0.00 | 86 | 1013.9 |
| 20260505223605 | 8 | 334 | 0.0 | 3.2 | 0.00 | 0.00 | 0.00 | 86 | 1014.0 |
| 20260505222105 | 8 | 346 | 0.0 | 4.8 | 0.00 | 0.00 | 0.00 | 86 | 1014.1 |
| 20260505220105 | 8 | 350 | 0.0 | 1.6 | 0.00 | 0.00 | 0.00 | 86 | 1014.1 |
| 20260505215604 | 8 | 338 | 0.0 | 1.6 | 0.00 | 0.00 | 0.00 | 85 | 1014.1 |
| 20260505215105 | 8 | 320 | 0.0 | 3.2 | 0.00 | 0.00 | 0.00 | 85 | 1014.0 |
| 20260505214104 | 9 | 25 | 0.0 | 1.6 | 0.00 | 0.00 | 0.00 | 85 | 1014.1 |
| 20260505213104 | 9 | 10 | 0.0 | 0.0 | 0.00 | 0.00 | 0.00 | 85 | 1014.1 |
| 20260505212105 | 9 | 353 | 0.0 | 1.6 | 0.00 | 0.00 | 0.00 | 85 | 1014.1 |
| 20260505211605 | 9 | 54 | 1.6 | 4.8 | 0.00 | 0.00 | 0.00 | 85 | 1014.0 |
| 20260505211105 | 9 | 328 | 0.0 | 1.6 | 0.00 | 0.00 | 0.00 | 84 | 1014.1 |
| 20260505210604 | 9 | 328 | 0.0 | 4.8 | 0.00 | 0.00 | 0.00 | 84 | 1014.1 |
| 20260505204605 | 10 | 20 | 0.0 | 3.2 | 0.00 | 0.00 | 0.00 | 84 | 1014.2 |
| 20260505202104 | 10 | 313 | 0.0 | 4.8 | 0.00 | 0.00 | 0.00 | 83 | 1014.2 |
| 20260505194605 | 10 | 353 | 0.0 | 0.0 | 0.00 | 0.00 | 0.00 | 81 | 1013.9 |
| 20260505193105 | 10 | 353 | 0.0 | 1.6 | 0.00 | 0.00 | 0.00 | 80 | 1013.7 |
| 20260505192104 | 11 | 353 | 0.0 | 8.0 | 0.00 | 0.00 | 0.00 | 80 | 1013.7 |
| 20260505191605 | 11 | 14 | 0.0 | 4.8 | 0.00 | 0.00 | 0.00 | 80 | 1013.6 |
| 20260505190605 | 11 | 18 | 1.6 | 3.2 | 0.00 | 0.00 | 0.00 | 79 | 1013.6 |
| 20260505190104 | 11 | 44 | 0.0 | 4.8 | 0.00 | 0.00 | 0.00 | 79 | 1013.6 |
| 20260505185105 | 11 | 4 | 0.0 | 4.8 | 0.00 | 0.00 | 0.00 | 78 | 1013.6 |
| 20260505184605 | 11 | 25 | 0.0 | 1.6 | 0.00 | 0.00 | 0.00 | 77 | 1013.6 |
| 20260505183605 | 11 | 15 | 0.0 | 4.8 | 0.00 | 0.00 | 0.00 | 77 | 1013.5 |
| 20260505182105 | 12 | 36 | 0.0 | 4.8 | 0.00 | 0.00 | 0.00 | 76 | 1013.4 |
| 20260505181605 | 12 | 349 | 0.0 | 4.8 | 0.00 | 0.00 | 0.00 | 76 | 1013.4 |
| 20260505180604 | 12 | 35 | 0.0 | 1.6 | 0.00 | 0.00 | 0.00 | 75 | 1013.5 |
| 20260505175604 | 12 | 53 | 0.0 | 4.8 | 0.00 | 0.00 | 0.00 | 74 | 1013.4 |
| 20260505174604 | 12 | 40 | 0.0 | 8.0 | 0.00 | 0.00 | 0.00 | 74 | 1013.4 |
| 20260505174105 | 12 | 49 | 1.6 | 8.0 | 0.00 | 0.00 | 0.00 | 74 | 1013.3 |
| 20260505173605 | 12 | 2 | 0.0 | 4.8 | 0.00 | 0.00 | 0.00 | 74 | 1013.3 |
| 20260505172605 | 12 | 36 | 1.6 | 11.3 | 0.00 | 0.00 | 0.00 | 74 | 1013.3 |
| 20260505172105 | 12 | 19 | 1.6 | 8.0 | 0.00 | 0.00 | 0.00 | 74 | 1013.3 |
| 20260505165105 | 13 | 356 | 1.6 | 4.8 | 0.00 | 0.00 | 0.00 | 73 | 1013.3 |
| 20260505164605 | 13 | 60 | 1.6 | 4.8 | 0.00 | 0.00 | 0.00 | 73 | 1013.3 |
| 20260505162105 | 14 | 353 | 0.0 | 4.8 | 0.00 | 0.00 | 0.00 | 69 | 1013.1 |
| 20260505160604 | 15 | 3 | 0.0 | 11.3 | 0.00 | 0.00 | 0.00 | 68 | 1013.1 |
| 20260505160105 | 15 | 10 | 1.6 | 4.8 | 0.00 | 0.00 | 0.00 | 68 | 1013.1 |
| 20260505153104 | 15 | 37 | 0.0 | 8.0 | 0.00 | 0.00 | 0.00 | 67 | 1013.2 |
| 20260505152605 | 15 | 64 | 0.0 | 4.8 | 0.00 | 0.00 | 0.00 | 68 | 1013.2 |
| 20260505152105 | 15 | 38 | 0.0 | 4.8 | 0.00 | 0.00 | 0.00 | 68 | 1013.2 |
| 20260505151605 | 15 | 59 | 0.0 | 3.2 | 0.00 | 0.00 | 0.00 | 68 | 1013.2 |
| 20260505150605 | 15 | 355 | 1.6 | 9.7 | 0.00 | 0.00 | 0.00 | 69 | 1013.1 |
| 20260505150105 | 15 | 1 | 1.6 | 8.0 | 0.00 | 0.00 | 0.00 | 70 | 1013.2 |
| 20260505140605 | 17 | 53 | 1.6 | 12.9 | 0.00 | 0.00 | 0.00 | 61 | 1013.3 |
| 20260505124604 | 17 | 57 | 0.0 | 4.8 | 0.00 | 0.00 | 0.00 | 54 | 1012.9 |